Time;durP1;ratioP1;P1;durP2;ratioP2;P2;SDS_P1;SDS_P2;PMS_P1;PMS_P2;Temp;Humidity;BMP_temperature;BMP_pressure;BME280_temperature;BME280_humidity;BME280_pressure;Samples;Min_cycle;Max_cycle;Signal;HPM_P1;HPM_P2
2023/07/03 00:02:09;;;;;;;30.73;4.88;;;;;;;-146.27;79.94;81882.00;5069108;28;20060;-69
2023/07/03 00:04:35;;;;;;;27.33;5.93;;;;;;;-146.27;80.17;81902.09;5087365;28;20418;-69
2023/07/03 00:07:07;;;;;;;25.63;4.53;;;;;;;-146.27;79.72;81863.94;5076004;28;20023;-69
2023/07/03 00:09:32;;;;;;;25.02;4.80;;;;;;;-146.27;79.42;81865.94;5068555;28;20044;-69
2023/07/03 00:11:58;;;;;;;38.00;6.22;;;;;;;-146.27;79.35;81861.94;5071425;28;20067;-69
2023/07/03 00:14:23;;;;;;;35.60;4.90;;;;;;;-146.27;79.82;81914.16;5069110;28;20059;-68
2023/07/03 00:16:49;;;;;;;25.33;4.70;;;;;;;-146.27;79.69;81918.16;5085480;28;20032;-68
2023/07/03 00:19:15;;;;;;;26.70;5.10;;;;;;;-146.27;79.17;81873.97;5077561;28;20301;-69
2023/07/03 00:21:43;;;;;;;29.48;4.35;;;;;;;-146.27;79.25;81926.22;5075859;28;20431;-68
2023/07/03 00:24:10;;;;;;;30.50;4.88;;;;;;;-146.27;79.55;81930.22;5082054;28;20032;-68
2023/07/03 00:26:36;;;;;;;31.13;5.15;;;;;;;-146.27;79.52;81950.31;5067113;28;20104;-68
2023/07/03 00:29:01;;;;;;;30.88;5.55;;;;;;;-146.27;79.48;81952.31;5068729;28;20424;-69
2023/07/03 00:31:27;;;;;;;32.50;6.25;;;;;;;-146.27;79.15;81918.16;5075329;28;20337;-69
2023/07/03 00:33:52;;;;;;;26.52;4.38;;;;;;;-146.27;78.94;81906.13;5068376;28;20035;-69
2023/07/03 00:36:17;;;;;;;22.55;4.78;;;;;;;-146.27;79.36;81942.28;5085303;28;20032;-69
2023/07/03 00:38:43;;;;;;;36.78;6.10;;;;;;;-146.27;79.59;81942.28;5058081;28;20161;-69
2023/07/03 00:41:08;;;;;;;29.77;5.05;;;;;;;-146.27;79.90;81968.38;5073466;28;20025;-68
2023/07/03 00:43:40;;;;;;;24.25;4.47;;;;;;;-146.27;80.04;81940.25;5077048;28;20427;-68
2023/07/03 00:46:08;;;;;;;31.88;5.90;;;;;;;-146.27;80.30;81978.44;5073347;28;20032;-70
2023/07/03 00:48:34;;;;;;;29.23;5.97;;;;;;;-146.27;80.25;81972.41;5076768;28;20036;-68
2023/07/03 00:51:00;;;;;;;25.25;4.28;;;;;;;-146.27;79.85;81944.28;5077090;28;20025;-69
2023/07/03 00:53:25;;;;;;;27.60;5.28;;;;;;;-146.27;79.88;81970.41;5067044;28;20499;-68
2023/07/03 00:55:50;;;;;;;35.92;5.78;;;;;;;-146.27;79.42;82012.56;5069715;28;20486;-69
2023/07/03 00:58:16;;;;;;;28.38;4.97;;;;;;;-146.27;78.82;81958.34;5087911;28;20016;-68
2023/07/03 01:00:49;;;;;;;32.90;4.65;;;;;;;-146.27;78.43;81956.34;5081772;28;20051;-69
2023/07/03 01:03:32;;;;;;;27.67;5.32;;;;;;;-146.27;78.08;81906.13;5066937;28;20028;-69
2023/07/03 01:06:00;;;;;;;24.65;4.43;;;;;;;-146.27;77.88;81888.03;5080883;28;20028;-69
2023/07/03 01:08:26;;;;;;;25.20;4.47;;;;;;;-146.27;77.07;81857.91;5080665;28;20487;-69
2023/07/03 01:10:54;;;;;;;19.88;4.20;;;;;;;-146.27;76.19;81942.28;5067120;28;20040;-68
2023/07/03 01:13:22;;;;;;;25.25;4.00;;;;;;;-146.27;75.29;81882.00;5072336;28;20366;-68
2023/07/03 01:15:48;;;;;;;29.05;4.00;;;;;;;-146.27;74.47;81932.22;5060048;28;20016;-68
2023/07/03 01:18:14;;;;;;;27.40;3.85;;;;;;;-146.27;73.76;81890.06;5057324;28;20396;-68
2023/07/03 01:20:49;;;;;;;22.90;3.63;;;;;;;-146.27;73.64;81912.16;5079982;28;20035;-69
2023/07/03 01:23:33;;;;;;;20.27;3.88;;;;;;;-146.27;73.14;81918.16;5062476;28;20600;-68
2023/07/03 01:26:00;;;;;;;19.27;3.50;;;;;;;-146.27;72.59;81918.16;5072286;28;20510;-69
2023/07/03 01:28:27;;;;;;;18.63;3.58;;;;;;;-146.27;71.77;81926.22;5066841;28;20035;-69
2023/07/03 01:30:54;;;;;;;16.50;3.55;;;;;;;-146.27;71.72;81916.16;5057059;28;20043;-68
2023/07/03 01:33:32;;;;;;;18.27;3.78;;;;;;;-146.27;71.15;81898.09;5073742;28;20353;-68
2023/07/03 01:35:59;;;;;;;19.67;3.95;;;;;;;-146.27;69.35;81882.00;5079110;28;20111;-68
2023/07/03 01:38:26;;;;;;;17.90;3.60;;;;;;;-146.27;69.29;81910.13;5072219;28;20505;-69
2023/07/03 01:40:57;;;;;;;17.85;3.80;;;;;;;-146.27;67.43;81942.28;5058650;28;20017;-68
2023/07/03 01:43:23;;;;;;;14.55;3.35;;;;;;;-146.27;67.39;81890.06;5060629;28;20032;-68
2023/07/03 01:45:49;;;;;;;13.73;3.33;;;;;;;-146.27;67.41;81906.13;5073739;28;20031;-69
2023/07/03 01:48:16;;;;;;;18.92;3.20;;;;;;;-146.27;67.21;81892.06;5075214;28;20024;-69
2023/07/03 01:50:45;;;;;;;14.68;2.92;;;;;;;-146.27;66.22;81873.97;5082978;28;20038;-69
2023/07/03 01:53:32;;;;;;;19.83;2.53;;;;;;;-146.27;65.64;81906.13;5070339;28;20040;-68
2023/07/03 01:56:15;;;;;;;13.82;2.45;;;;;;;-146.27;62.58;81880.00;5084222;28;20107;-68
2023/07/03 01:58:43;;;;;;;11.98;2.45;;;;;;;-146.27;60.92;81948.31;5091266;28;20027;-69
2023/07/03 02:01:15;;;;;;;12.25;2.70;;;;;;;-146.27;58.08;81902.09;5086715;28;20111;-69
2023/07/03 02:03:43;;;;;;;13.50;2.05;;;;;;;-146.27;55.48;81920.19;5089122;28;20106;-68
2023/07/03 02:06:15;;;;;;;5.97;1.95;;;;;;;-146.27;50.94;81930.22;5093755;28;20031;-69
2023/07/03 02:08:41;;;;;;;4.18;1.75;;;;;;;-146.27;46.32;81916.16;5075249;28;20024;-68
2023/07/03 02:11:18;;;;;;;6.45;1.42;;;;;;;-146.27;45.49;81970.41;5073985;28;20071;-69
2023/07/03 02:13:43;;;;;;;9.05;1.55;;;;;;;-146.27;45.65;81978.44;5071626;28;20081;-68
2023/07/03 02:16:09;;;;;;;6.28;1.60;;;;;;;-146.27;45.76;81908.13;5085780;28;20075;-69
2023/07/03 02:18:35;;;;;;;8.65;1.52;;;;;;;-146.27;46.06;81910.13;5076703;28;20437;-68
2023/07/03 02:21:00;;;;;;;8.98;1.60;;;;;;;-146.27;45.83;81857.91;5084263;28;20364;-69
2023/07/03 02:23:26;;;;;;;9.65;1.60;;;;;;;-146.27;45.96;81918.16;5066600;28;20032;-69
2023/07/03 02:25:52;;;;;;;6.65;1.88;;;;;;;-146.27;46.60;81918.16;5079327;28;20035;-69
2023/07/03 02:28:18;;;;;;;6.88;1.52;;;;;;;-146.27;46.96;81962.34;5083586;28;20036;-68
2023/07/03 02:30:43;;;;;;;5.43;1.45;;;;;;;-146.27;47.29;81928.22;5066141;28;20033;-70
2023/07/03 02:33:10;;;;;;;5.63;1.08;;;;;;;-146.27;47.85;81926.22;5081359;28;20024;-69
2023/07/03 02:35:37;;;;;;;4.18;1.70;;;;;;;-146.27;48.17;81902.09;5087988;28;20024;-68
2023/07/03 02:38:02;;;;;;;6.82;1.50;;;;;;;-146.27;48.47;81894.06;5071627;28;20111;-69
2023/07/03 02:40:28;;;;;;;8.43;2.15;;;;;;;-146.27;48.56;81908.13;5052980;28;20067;-69
2023/07/03 02:42:54;;;;;;;12.15;1.88;;;;;;;-146.27;48.19;81934.25;5084446;28;20383;-69
2023/07/03 02:45:20;;;;;;;8.05;1.42;;;;;;;-146.27;47.96;81916.16;5074147;28;20028;-69
2023/07/03 02:47:45;;;;;;;8.23;1.63;;;;;;;-146.27;47.19;81942.28;5070390;28;20377;-68
2023/07/03 02:50:10;;;;;;;8.93;2.38;;;;;;;-146.27;47.00;81950.31;5071300;28;20368;-69
2023/07/03 02:52:36;;;;;;;10.38;1.52;;;;;;;-146.27;46.59;81990.47;5077933;28;20074;-68
2023/07/03 02:55:01;;;;;;;3.60;1.25;;;;;;;-146.27;46.73;81986.47;5070844;28;20032;-69
2023/07/03 02:57:28;;;;;;;10.80;1.55;;;;;;;-146.27;46.82;81962.34;5068878;28;20036;-68
2023/07/03 02:59:53;;;;;;;8.32;1.50;;;;;;;-146.27;46.84;81956.34;5064997;28;20469;-68
2023/07/03 03:02:19;;;;;;;6.30;1.70;;;;;;;-146.27;46.42;81938.25;5079382;28;20024;-68
2023/07/03 03:04:47;;;;;;;5.90;1.45;;;;;;;-146.27;45.89;81960.34;5091547;28;20028;-68
2023/07/03 03:07:12;;;;;;;6.90;1.80;;;;;;;-146.27;45.97;81952.31;5091450;28;20205;-69
2023/07/03 03:09:37;;;;;;;5.13;1.15;;;;;;;-146.27;46.28;81950.31;5079911;28;20060;-69
2023/07/03 03:12:03;;;;;;;5.43;1.45;;;;;;;-146.27;46.55;81934.25;5082109;28;20028;-69
2023/07/03 03:14:29;;;;;;;4.88;1.48;;;;;;;-146.27;47.00;81954.31;5086083;28;20063;-69
2023/07/03 03:16:54;;;;;;;8.15;1.48;;;;;;;-146.27;47.54;81990.47;5082392;28;20023;-68
2023/07/03 03:19:19;;;;;;;7.60;1.35;;;;;;;-146.27;47.99;81960.34;5057250;28;20064;-69
2023/07/03 03:21:45;;;;;;;9.70;1.70;;;;;;;-146.27;48.72;81988.47;5052161;28;20028;-69
2023/07/03 03:24:10;;;;;;;8.63;1.67;;;;;;;-146.27;49.03;81972.41;5052837;28;20047;-69
2023/07/03 03:26:35;;;;;;;11.48;1.73;;;;;;;-146.27;49.92;81982.44;5092542;28;20455;-66
2023/07/03 03:29:01;;;;;;;8.73;1.67;;;;;;;-146.27;51.07;82046.72;5092101;28;20044;-69
2023/07/03 03:31:26;;;;;;;5.75;1.52;;;;;;;-146.27;51.42;81994.50;5079685;28;20090;-69
2023/07/03 03:33:52;;;;;;;7.05;1.83;;;;;;;-146.27;51.21;81994.50;5066957;28;20028;-69
2023/07/03 03:36:17;;;;;;;10.05;1.70;;;;;;;-146.27;51.41;82006.53;5071634;28;20036;-68
2023/07/03 03:38:42;;;;;;;8.07;1.67;;;;;;;-146.27;51.38;82010.56;5065318;28;20021;-68
2023/07/03 03:41:08;;;;;;;8.52;1.65;;;;;;;-146.27;50.76;82038.69;5068117;28;20405;-69
2023/07/03 03:43:34;;;;;;;7.13;1.65;;;;;;;-146.27;50.97;82050.75;5091730;28;20077;-69
2023/07/03 03:46:01;;;;;;;12.35;2.00;;;;;;;-146.27;51.83;82042.69;5091575;28;20028;-68
2023/07/03 03:48:28;;;;;;;12.75;1.65;;;;;;;-146.27;51.94;82042.69;5051777;28;20029;-68
2023/07/03 03:50:53;;;;;;;11.23;2.60;;;;;;;-146.27;52.28;82062.78;5068925;28;20058;-68
2023/07/03 03:53:19;;;;;;;10.32;1.77;;;;;;;-146.27;52.47;82082.88;5086777;28;20137;-69
2023/07/03 03:55:51;;;;;;;7.28;2.17;;;;;;;-146.27;52.77;82078.84;5068267;28;20012;-69
2023/07/03 03:58:18;;;;;;;16.20;1.83;;;;;;;-146.27;53.08;82086.91;5091365;28;20032;-68
2023/07/03 04:00:44;;;;;;;7.43;1.85;;;;;;;-146.27;53.21;82127.06;5091358;28;20032;-69
2023/07/03 04:03:10;;;;;;;13.98;2.78;;;;;;;-146.27;53.71;82113.00;5067371;28;20111;-68
2023/07/03 04:05:36;;;;;;;8.07;1.73;;;;;;;-146.27;53.47;82088.91;5067508;28;20112;-68
2023/07/03 04:08:01;;;;;;;11.52;2.08;;;;;;;-146.27;53.71;82115.00;5067600;28;20025;-68
2023/07/03 04:10:26;;;;;;;5.65;1.50;;;;;;;-146.27;53.60;82123.06;5069966;28;20488;-69
2023/07/03 04:12:52;;;;;;;4.05;1.52;;;;;;;-146.27;53.94;82094.94;5077301;28;20026;-69
2023/07/03 04:15:17;;;;;;;9.02;1.42;;;;;;;-146.27;55.05;82157.19;5064311;28;20085;-68
2023/07/03 04:17:43;;;;;;;6.25;1.80;;;;;;;-146.27;55.42;82143.13;5057147;28;20024;-69
2023/07/03 04:20:15;;;;;;;12.18;2.10;;;;;;;-146.27;55.62;82123.06;5064666;28;20479;-69
2023/07/03 04:22:41;;;;;;;12.25;2.03;;;;;;;-146.27;55.62;82082.88;5065692;28;20107;-69
2023/07/03 04:25:08;;;;;;;11.18;2.38;;;;;;;-146.27;55.92;82129.06;5070054;28;20430;-68
2023/07/03 04:27:34;;;;;;;10.48;1.80;;;;;;;-146.27;56.24;82135.09;5067637;28;20037;-69
2023/07/03 04:29:59;;;;;;;15.68;1.85;;;;;;;-146.27;56.01;82115.00;5067875;28;20020;-69
2023/07/03 04:32:25;;;;;;;11.02;2.00;;;;;;;-146.27;56.14;82125.06;5064169;28;20525;-68
2023/07/03 04:34:50;;;;;;;10.70;1.92;;;;;;;-146.27;56.24;82106.97;5053882;28;20029;-68
2023/07/03 04:37:17;;;;;;;10.18;2.10;;;;;;;-146.27;56.55;82102.97;5050509;28;20469;-68
2023/07/03 04:39:43;;;;;;;11.90;2.10;;;;;;;-146.27;56.87;82094.94;5061287;28;20061;-69
2023/07/03 04:42:13;;;;;;;10.63;1.80;;;;;;;-146.27;56.73;82022.63;5084095;28;20029;-68
2023/07/03 04:44:39;;;;;;;10.98;1.80;;;;;;;-146.27;56.57;82094.94;5064040;28;20032;-69
2023/07/03 04:47:05;;;;;;;12.38;2.65;;;;;;;-146.27;57.07;82088.91;5066433;28;20056;-68
2023/07/03 04:49:34;;;;;;;12.77;1.90;;;;;;;-146.27;56.51;82119.03;5072126;28;20032;-68
2023/07/03 04:52:00;;;;;;;14.98;2.38;;;;;;;-146.27;56.48;82090.91;5055214;28;20469;-69
2023/07/03 04:54:28;;;;;;;12.05;2.00;;;;;;;-146.27;55.98;82066.81;5052657;28;20112;-69
2023/07/03 04:56:54;;;;;;;8.95;1.52;;;;;;;-146.27;55.80;82082.88;5084790;28;20035;-69
2023/07/03 04:59:20;;;;;;;10.65;1.63;;;;;;;-146.27;55.81;82115.00;5081381;28;20439;-68
2023/07/03 05:01:45;;;;;;;10.63;1.67;;;;;;;-146.27;55.29;82068.81;5067503;28;20035;-69
2023/07/03 05:04:11;;;;;;;7.85;2.67;;;;;;;-146.27;55.41;82058.78;5071052;28;20071;-69
2023/07/03 05:06:38;;;;;;;8.75;1.92;;;;;;;-146.27;55.71;82102.97;5079532;28;20051;-69
2023/07/03 05:09:04;;;;;;;10.85;1.40;;;;;;;-146.27;55.23;81978.44;5066050;28;20028;-69
2023/07/03 05:11:31;;;;;;;9.82;1.70;;;;;;;-146.27;55.23;82054.75;5064001;28;20033;-69
2023/07/03 05:13:56;;;;;;;12.65;2.20;;;;;;;-146.27;55.45;82062.78;5064944;28;20103;-69
2023/07/03 05:16:22;;;;;;;7.97;1.73;;;;;;;-146.27;55.76;82074.84;5063432;28;20051;-68
2023/07/03 05:18:48;;;;;;;9.10;2.00;;;;;;;-146.27;56.17;82102.97;5068474;28;20491;-68
2023/07/03 05:21:13;;;;;;;8.95;1.95;;;;;;;-146.27;56.82;82074.84;5057337;28;20385;-69
2023/07/03 05:23:39;;;;;;;13.05;2.97;;;;;;;-146.27;57.22;82117.03;5059464;28;20020;-69
2023/07/03 05:26:04;;;;;;;9.35;1.98;;;;;;;-146.27;57.56;82054.75;5065832;28;20484;-69
2023/07/03 05:28:30;;;;;;;12.68;2.05;;;;;;;-146.27;57.55;82032.66;5065249;28;20060;-68
2023/07/03 05:30:57;;;;;;;6.82;1.67;;;;;;;-146.27;57.58;81990.47;5060417;28;20056;-69
2023/07/03 05:33:23;;;;;;;15.80;2.25;;;;;;;-146.27;56.40;82044.72;5068681;28;20036;-68
2023/07/03 05:35:49;;;;;;;14.23;2.03;;;;;;;-146.27;55.49;82022.63;5069464;28;20547;-68
2023/07/03 05:38:14;;;;;;;9.23;2.00;;;;;;;-146.27;55.01;82022.63;5067412;28;20097;-69
2023/07/03 05:40:40;;;;;;;10.18;1.95;;;;;;;-146.27;55.00;82036.69;5061222;28;20035;-69
2023/07/03 05:43:05;;;;;;;9.95;1.48;;;;;;;-146.27;55.67;81990.47;5067335;28;20059;-72
2023/07/03 05:45:30;;;;;;;11.20;1.50;;;;;;;-146.27;55.34;82082.88;5054467;28;20107;-65
2023/07/03 05:47:56;;;;;;;13.95;2.10;;;;;;;-146.27;56.18;82070.81;5058071;28;20145;-69
2023/07/03 05:50:21;;;;;;;9.13;1.90;;;;;;;-146.27;55.93;82044.72;5066087;28;20208;-70
2023/07/03 05:52:46;;;;;;;8.90;1.50;;;;;;;-146.27;56.29;82060.78;5063487;28;20021;-69
2023/07/03 05:55:14;;;;;;;9.05;1.50;;;;;;;-146.27;54.50;82086.91;5062573;28;20108;-69
2023/07/03 05:57:40;;;;;;;15.65;3.25;;;;;;;-146.27;55.06;82062.78;5064761;28;20028;-70
2023/07/03 06:00:16;;;;;;;9.25;1.98;;;;;;;-146.27;55.76;82036.69;5068396;28;20047;-70
2023/07/03 06:02:43;;;;;;;11.27;2.28;;;;;;;-146.27;56.11;82050.75;5057343;28;20016;-70
2023/07/03 06:05:11;;;;;;;9.63;1.83;;;;;;;-146.27;55.65;82004.53;5066749;28;20480;-71
2023/07/03 06:07:36;;;;;;;9.80;2.10;;;;;;;-146.27;55.45;82012.56;5060435;28;20365;-69
2023/07/03 06:10:03;;;;;;;8.98;1.70;;;;;;;-146.27;54.29;82026.63;5067615;28;20044;-69
2023/07/03 06:12:29;;;;;;;10.27;1.50;;;;;;;-146.27;54.73;82042.69;5068191;28;20032;-71
2023/07/03 06:14:57;;;;;;;12.02;1.60;;;;;;;-146.27;55.53;81986.47;5064379;28;20125;-69
2023/07/03 06:17:23;;;;;;;10.15;1.77;;;;;;;-146.27;55.17;81930.22;5063206;28;20107;-70
2023/07/03 06:19:49;;;;;;;8.13;1.70;;;;;;;-146.27;55.59;81992.50;5070330;28;20036;-71
2023/07/03 06:22:16;;;;;;;14.77;2.20;;;;;;;-146.27;56.26;81934.25;5067951;28;20212;-69
2023/07/03 06:24:41;;;;;;;10.75;1.75;;;;;;;-146.27;55.50;81942.28;5078578;28;20384;-70
2023/07/03 06:27:06;;;;;;;11.75;2.38;;;;;;;-146.27;55.44;82012.56;5078718;28;20024;-70
2023/07/03 06:29:33;;;;;;;8.38;2.13;;;;;;;-146.27;54.97;81944.28;5069520;28;20475;-75
2023/07/03 06:31:58;;;;;;;11.25;2.10;;;;;;;-146.27;55.53;81892.06;5089404;28;20154;-66
2023/07/03 06:34:23;;;;;;;7.93;1.83;;;;;;;-146.27;55.20;81898.09;5086897;28;20110;-70
2023/07/03 06:36:49;;;;;;;13.32;2.08;;;;;;;-146.27;55.21;81918.16;5061640;28;20690;-70
2023/07/03 06:39:15;;;;;;;9.63;1.98;;;;;;;-146.27;56.02;81932.22;5075810;28;20400;-71
2023/07/03 06:41:40;;;;;;;8.18;2.00;;;;;;;-146.27;55.94;81918.16;5070457;28;20120;-71
2023/07/03 06:44:11;;;;;;;9.18;1.95;;;;;;;-146.27;55.44;81924.19;5061669;28;20039;-71
2023/07/03 06:46:36;;;;;;;8.73;2.08;;;;;;;-146.27;56.03;81900.09;5071952;28;20048;-71
2023/07/03 06:49:02;;;;;;;8.80;2.03;;;;;;;-146.27;56.12;81894.06;5052741;28;20064;-72
2023/07/03 06:51:27;;;;;;;12.82;1.85;;;;;;;-146.27;56.33;81946.28;5055318;28;20032;-74
2023/07/03 06:53:53;;;;;;;11.38;1.80;;;;;;;-146.27;56.96;81918.16;5051049;28;20036;-70
2023/07/03 06:56:19;;;;;;;11.98;1.88;;;;;;;-146.27;56.73;81869.97;5066338;28;20024;-71
2023/07/03 06:58:47;;;;;;;11.70;2.30;;;;;;;-146.27;55.89;81809.72;5086019;28;20070;-72
2023/07/03 07:01:13;;;;;;;11.68;2.03;;;;;;;-146.27;55.79;81829.78;5071407;28;20028;-72
2023/07/03 07:03:39;;;;;;;14.25;1.95;;;;;;;-146.27;56.97;81888.03;5069495;28;20040;-70
2023/07/03 07:06:16;;;;;;;10.85;1.98;;;;;;;-146.27;56.85;81974.41;5058497;28;20101;-71
2023/07/03 07:08:42;;;;;;;13.00;1.98;;;;;;;-146.27;57.02;81926.22;5064970;28;20028;-70
2023/07/03 07:11:14;;;;;;;4.85;1.77;;;;;;;-146.27;57.11;81867.97;5077928;28;20080;-71
2023/07/03 07:13:42;;;;;;;20.75;2.40;;;;;;;-146.27;57.00;81890.06;5071272;28;20029;-71
2023/07/03 07:16:18;;;;;;;9.80;1.63;;;;;;;-146.27;57.02;81876.00;5070731;28;20035;-69
2023/07/03 07:18:47;;;;;;;7.07;1.58;;;;;;;-146.27;58.46;81950.31;5059840;28;20441;-69
2023/07/03 07:21:13;;;;;;;10.13;1.90;;;;;;;-146.27;58.45;81888.03;5052202;28;20017;-70
2023/07/03 07:23:38;;;;;;;16.63;2.42;;;;;;;-146.27;58.72;81918.16;5053535;28;20898;-70
2023/07/03 07:26:03;;;;;;;9.63;1.75;;;;;;;-146.27;58.52;81882.00;5057028;28;20025;-70
2023/07/03 07:28:29;;;;;;;14.23;1.85;;;;;;;-146.27;59.22;81914.16;5070900;28;20025;-70
2023/07/03 07:30:55;;;;;;;9.77;2.45;;;;;;;-146.27;59.61;81863.94;5070889;28;20396;-69
2023/07/03 07:33:22;;;;;;;14.75;2.13;;;;;;;-146.27;60.09;81886.03;5058560;28;20075;-71
2023/07/03 07:35:48;;;;;;;10.15;2.00;;;;;;;-146.27;60.14;81934.25;5070773;28;20027;-69
2023/07/03 07:38:13;;;;;;;9.43;1.98;;;;;;;-146.27;61.09;81950.31;5073489;28;20028;-71
2023/07/03 07:40:39;;;;;;;14.20;2.25;;;;;;;-146.27;61.61;81990.47;5065750;28;20411;-71
2023/07/03 07:43:05;;;;;;;10.50;1.60;;;;;;;-146.27;61.59;81936.25;5090456;28;20359;-69
2023/07/03 07:45:31;;;;;;;11.95;1.95;;;;;;;-146.27;61.81;81950.31;5069508;28;20031;-71
2023/07/03 07:47:57;;;;;;;10.82;2.28;;;;;;;-146.27;61.73;81898.09;5060564;28;20507;-69
2023/07/03 07:50:23;;;;;;;11.10;2.13;;;;;;;-146.27;59.54;81869.97;5051267;28;20020;-69
2023/07/03 07:52:49;;;;;;;9.38;1.63;;;;;;;-146.27;58.53;81882.00;5063814;28;20021;-69
2023/07/03 07:55:15;;;;;;;7.80;1.60;;;;;;;-146.27;59.00;81908.13;5075616;28;20028;-68
2023/07/03 07:57:40;;;;;;;8.05;1.88;;;;;;;-146.27;58.83;81873.97;5058946;28;20032;-70
2023/07/03 08:00:06;;;;;;;13.35;1.60;;;;;;;-146.27;59.75;81920.19;5091298;28;20081;-70
2023/07/03 08:02:32;;;;;;;11.88;1.88;;;;;;;-146.27;59.40;81878.00;5054431;28;20025;-70
2023/07/03 08:05:00;;;;;;;14.70;2.00;;;;;;;-146.27;59.58;81886.03;5050444;28;20538;-70
2023/07/03 08:07:26;;;;;;;13.77;2.15;;;;;;;-146.27;59.48;81825.78;5051159;28;20027;-70
2023/07/03 08:09:51;;;;;;;8.90;1.65;;;;;;;-146.27;59.24;81863.94;5050794;28;20388;-70
2023/07/03 08:12:17;;;;;;;9.65;1.67;;;;;;;-146.27;59.08;81926.22;5050660;28;20024;-69
2023/07/03 08:14:42;;;;;;;12.57;1.65;;;;;;;-146.27;58.92;81922.19;5050822;28;20027;-69
2023/07/03 08:17:08;;;;;;;7.13;1.60;;;;;;;-146.27;58.16;81922.19;5051844;28;20519;-69
2023/07/03 08:19:33;;;;;;;10.52;1.40;;;;;;;-146.27;56.60;81902.09;5051626;28;20029;-69
2023/07/03 08:21:59;;;;;;;4.30;1.30;;;;;;;-146.27;56.75;81849.88;5066496;28;20025;-69
2023/07/03 08:24:24;;;;;;;11.13;1.95;;;;;;;-146.27;55.34;81845.88;5051121;28;20499;-68
2023/07/03 08:26:50;;;;;;;13.02;1.73;;;;;;;-146.27;53.57;81873.97;5050618;28;20150;-69
2023/07/03 08:29:16;;;;;;;8.20;1.42;;;;;;;-146.27;54.21;81878.00;5050248;28;20093;-69
2023/07/03 08:31:42;;;;;;;8.35;1.35;;;;;;;-146.27;54.58;81817.75;5050309;28;20419;-69
2023/07/03 08:34:09;;;;;;;8.43;1.75;;;;;;;-146.27;55.35;81761.50;5067780;28;20116;-69
2023/07/03 08:36:34;;;;;;;12.60;2.35;;;;;;;-146.27;55.40;81898.09;5070361;28;20035;-69
2023/07/03 08:39:02;;;;;;;11.52;1.75;;;;;;;-146.27;56.10;81847.88;5069632;28;20028;-69
2023/07/03 08:41:28;;;;;;;13.60;1.60;;;;;;;-146.27;56.56;81857.91;5056177;28;20021;-69
2023/07/03 08:43:58;;;;;;;9.68;1.77;;;;;;;-146.27;57.19;81857.91;5050425;28;20024;-70
2023/07/03 08:46:25;;;;;;;10.52;1.67;;;;;;;-146.27;57.64;81902.09;5053769;28;20060;-71
2023/07/03 08:48:54;;;;;;;9.75;1.95;;;;;;;-146.27;57.52;81845.88;5069748;28;20125;-70
2023/07/03 08:51:26;;;;;;;11.40;2.03;;;;;;;-146.27;58.18;81865.94;5070075;28;20028;-70
2023/07/03 08:53:54;;;;;;;14.32;2.40;;;;;;;-146.27;59.71;81873.97;5072507;28;20024;-70
2023/07/03 08:56:30;;;;;;;6.78;1.75;;;;;;;-146.27;59.92;81817.75;5070231;28;20023;-70
2023/07/03 08:58:56;;;;;;;13.23;2.45;;;;;;;-146.27;59.49;81829.78;5069958;28;20024;-68
2023/07/03 09:01:46;;;;;;;18.15;2.40;;;;;;;-146.27;60.01;81799.66;5068747;28;20017;-69
2023/07/03 09:04:42;;;;;;;9.43;1.98;;;;;;;-146.27;60.14;81789.63;5084728;28;20126;-68
2023/07/03 09:07:15;;;;;;;17.00;2.63;;;;;;;-146.27;58.63;81801.69;5057355;28;20021;-69
2023/07/03 09:09:41;;;;;;;;;;;;;;;-146.27;57.10;81793.66;5067610;28;20130;-67
2023/07/03 09:12:24;;;;;;;10.93;2.45;;;;;;;-146.27;57.83;81825.78;5089160;28;19935;-66
2023/07/03 09:15:13;;;;;;;17.05;2.55;;;;;;;-146.27;57.07;81777.56;5083420;28;20522;-69
2023/07/03 09:17:39;;;;;;;9.80;1.80;;;;;;;-146.27;56.76;81709.28;5089954;28;20448;-68
2023/07/03 09:20:05;;;;;;;12.20;2.58;;;;;;;-146.27;56.46;81699.25;5089921;28;20032;-68
2023/07/03 09:23:04;;;;;;;11.93;1.60;;;;;;;-146.27;57.21;81673.13;5090082;28;20039;-69
2023/07/03 09:25:51;;;;;;;11.18;2.00;;;;;;;-146.27;56.82;81616.91;5065961;28;20032;-70
2023/07/03 09:28:17;;;;;;;10.55;2.20;;;;;;;-146.27;56.89;81697.22;5064723;28;20032;-70
2023/07/03 09:30:42;;;;;;;10.60;2.08;;;;;;;-146.27;56.96;81735.41;5049269;28;20031;-69
2023/07/03 09:33:08;;;;;;;10.25;2.17;;;;;;;-146.27;57.17;81685.19;5055691;28;20403;-69
2023/07/03 09:35:40;;;;;;;17.77;2.17;;;;;;;-146.27;55.73;81713.31;5056824;28;20491;-69
2023/07/03 09:38:17;;;;;;;10.82;2.05;;;;;;;-146.27;57.17;81685.19;5060796;28;20025;-68
2023/07/03 09:40:47;;;;;;;12.18;2.08;;;;;;;-146.27;58.63;81636.97;5067264;28;20078;-69
2023/07/03 09:43:26;;;;;;;12.07;2.53;;;;;;;-146.27;57.60;81649.03;5075634;28;20365;-68
2023/07/03 09:46:09;;;;;;;10.18;2.28;;;;;;;-146.27;58.29;81665.09;5072158;28;20422;-71
2023/07/03 09:48:35;;;;;;;11.25;2.00;;;;;;;-146.27;57.59;81673.13;5069168;28;20032;-68
2023/07/03 09:51:04;;;;;;;10.07;2.05;;;;;;;-146.27;57.02;81709.28;5078129;28;20028;-69
2023/07/03 09:53:30;;;;;;;11.25;1.73;;;;;;;-146.27;56.99;81687.19;5064039;28;20082;-69
2023/07/03 09:56:02;;;;;;;11.25;2.45;;;;;;;-146.27;56.70;81725.34;5069636;28;20025;-69
2023/07/03 09:58:29;;;;;;;9.07;2.63;;;;;;;-146.27;55.05;81673.13;5067061;28;20024;-69
2023/07/03 10:00:57;;;;;;;9.15;1.90;;;;;;;-146.27;54.08;81673.13;5065909;28;20040;-69
2023/07/03 10:03:26;;;;;;;13.10;2.45;;;;;;;-146.27;54.57;81693.22;5066143;28;20126;-68
2023/07/03 10:05:56;;;;;;;15.40;2.72;;;;;;;-146.27;55.93;81677.16;5072872;28;20056;-72
2023/07/03 10:08:27;;;;;;;15.38;2.17;;;;;;;-146.27;54.27;81634.97;5075781;28;20106;-70
2023/07/03 10:10:55;;;;;;;13.18;2.33;;;;;;;-146.27;53.86;81588.78;5091223;28;20088;-70
2023/07/03 10:13:29;;;;;;;11.05;1.92;;;;;;;-146.27;51.62;81534.56;5091336;28;20032;-70
2023/07/03 10:15:55;;;;;;;10.25;2.45;;;;;;;-146.27;50.11;81462.25;5082192;28;20099;-70
2023/07/03 10:18:25;;;;;;;11.07;2.15;;;;;;;-146.27;50.81;81412.03;5067605;28;20357;-70
2023/07/03 10:20:51;;;;;;;7.45;1.65;;;;;;;-146.27;49.47;81391.97;5072906;28;20051;-69
2023/07/03 10:23:37;;;;;;;6.97;1.83;;;;;;;-146.27;49.49;81436.16;5070844;28;20485;-69
2023/07/03 10:26:21;;;;;;;7.57;1.63;;;;;;;-146.27;48.76;81440.16;5072877;28;20534;-69
2023/07/03 10:29:21;;;;;;;8.73;1.80;;;;;;;-146.27;48.08;81424.09;5065942;28;20033;-69
2023/07/03 10:31:52;;;;;;;9.80;1.52;;;;;;;-146.27;47.09;81476.31;5063544;28;20035;-69
2023/07/03 10:34:33;;;;;;;12.82;2.63;;;;;;;-146.27;48.03;81428.09;5069783;28;20487;-69
2023/07/03 10:37:02;;;;;;;13.18;2.10;;;;;;;-146.27;48.93;81408.03;5077373;28;20043;-69
2023/07/03 10:39:41;;;;;;;9.75;1.70;;;;;;;-146.27;47.20;81379.91;5081228;28;20036;-70
2023/07/03 10:42:15;;;;;;;6.50;1.88;;;;;;;-146.27;46.88;81371.88;5074074;28;20025;-70
2023/07/03 10:44:41;;;;;;;8.27;1.55;;;;;;;-146.27;46.22;81347.78;5068694;28;20435;-69
2023/07/03 10:47:16;;;;;;;5.43;1.52;;;;;;;-146.27;46.10;81381.91;5068491;28;20054;-69
2023/07/03 10:49:42;;;;;;;7.05;1.63;;;;;;;-146.27;46.13;81482.34;5072054;28;20468;-69
2023/07/03 10:52:48;;;;;;;9.82;1.65;;;;;;;-146.27;46.21;81464.25;5064572;28;20034;-69
2023/07/03 10:55:26;;;;;;;6.97;1.33;;;;;;;-146.27;44.31;81353.81;5067560;28;20044;-69
2023/07/03 10:58:18;;;;;;;6.53;1.30;;;;;;;-146.27;43.85;81379.91;5063482;28;20028;-70
2023/07/03 11:00:53;;;;;;;7.05;1.52;;;;;;;-146.27;43.59;81468.28;5069110;28;20494;-69
2023/07/03 11:03:37;;;;;;;4.25;1.20;;;;;;;-146.27;44.46;81444.19;5072010;28;20032;-69
2023/07/03 11:06:05;;;;;;;3.88;1.02;;;;;;;-146.27;44.95;81476.31;5075145;28;20045;-69
2023/07/03 11:08:33;;;;;;;9.32;1.35;;;;;;;-146.27;44.89;81474.31;5079408;28;20510;-70
2023/07/03 11:11:40;;;;;;;6.00;1.30;;;;;;;-146.27;45.06;81468.28;5082818;28;20053;-69
2023/07/03 11:14:28;;;;;;;12.65;1.50;;;;;;;-146.27;46.32;81472.28;5057481;28;20036;-69
2023/07/03 11:17:24;;;;;;;10.10;1.88;;;;;;;-146.27;45.86;81295.56;5075648;28;20040;-69
2023/07/03 11:19:49;;;;;;;7.38;1.30;;;;;;;-146.27;43.58;81247.38;5051419;28;20404;-69